SpazioLink.com il tuo mini portale

Terremoti in Italia, posizione geografica

Spaziolink il MiniPortale

Home Sfondi Screenmates SuperEnalotto Posizione navi Terremoti Calendario feste Barzellette Frasi utili Giochi Meteo Gifs Software Ricerca
Lista dei terremoti in Italia in tempo reale dopo l'elaborazione dei valori rilevati dai sensori dislocati nelle zone interessate, comprendenti gli eventi sismici di elevata magnitudo sull'intero globo, per visualizzare la posizione dell'epicentro su Google Maps cliccare sul nome del luogo evidenziato in blu.
DATA ORA MAG ≥ 2 ZONA REGIONE LAT LONG PROF km
19/08/2022 14:55:11 ML 3.5 Costa Greca Ionica (GRECIA) Mare 39.34 20.13 10.0
19/08/2022 14:18:03 ML 2.7 Mar Ionio Settentrionale (MARE) Mare 38.05 16.78 48.3
18/08/2022 21:53:24 ML 2.1 2 km a nord di Pievebovigliana (MC) Marche 43.08 13.08 20.0
18/08/2022 19:59:20 ML 2.0 5 km a sud-est di Soliera (MO) Emilia Romagna 44.69 10.95 53.5
18/08/2022 16:30:10 ML 2.3 2 km nord-est Pievebovigliana (MC) Marche 43.08 13.09 19.1
18/08/2022 15:24:16 ML 2.0 2 km a nord di Pievebovigliana (MC) Marche 43.08 13.09 19.8
18/08/2022 09:46:28 Mwp 5.5 Minahassa Peninsula, Sulawesi, Indonesia (Sea: Indonesia) Mondo 0.38 124.44 173.0
18/08/2022 03:32:02 ML 2.4 3 km a est di Castelsantangelo sul Nera (MC) Marche 42.90 13.19 7.0
17/08/2022 23:48:16 ML 2.9 Mar Ionio Meridionale (MARE) Mare 37.42 18.50 37.5
17/08/2022 21:59:14 ML 2.1 2 km a nord di Badia Calavena (VR) Veneto 45.58 11.16 10.4
17/08/2022 20:19:47 ML 2.2 3 km a nord-ovest di Scheggia e Pascelupo (PG) Umbria 43.43 12.65 10.0
17/08/2022 14:56:33 Mwp 5.6 Indonesia (Sea) Mondo -7.00 125.48 498.0
17/08/2022 11:44:52 ML 2.1 8 km a sud-est di Norcia (PG) Umbria 42.75 13.18 8.4
17/08/2022 11:44:01 ML 2.2 8 km a nord-ovest di Accumoli (RI) Lazio 42.75 13.18 9.5
17/08/2022 06:24:48 Mwp 5.8 Off east coast of Honshu, Japan (Sea: Japan) Mondo 33.31 141.83 10.2
17/08/2022 04:42:19 ML 2.5 Tirreno Meridionale (MARE) Mare 39.63 15.39 261.0
17/08/2022 01:45:09 ML 2.9 Slovenia (SLOVENIA) Mondo 45.79 14.85 10.0
16/08/2022 18:34:42 mb 4.3 Greece (Land) Mondo 39.36 20.54 10.7
15/08/2022 23:33:46 ML 2.1 Costa Garganica (Foggia) Mare 41.97 16.17 10.6
15/08/2022 10:23:12 Mwp 5.5 Philippines (Land) Mondo 6.70 125.37 33.6
15/08/2022 08:41:13 ML 2.2 2 km a est di Naso (ME) Sicilia 38.13 14.81 19.8
15/08/2022 07:51:58 ML 2.0 2 km a sud-ovest di Baiso (RE) Emilia Romagna 44.48 10.58 22.7
15/08/2022 03:32:36 ML 2.2 6 km a est di San Giovanni Rotondo (FG) Puglia 41.70 15.80 16.4
14/08/2022 23:04:46 Mwp 6.2 New Caledonia (Sea) Mondo -21.92 171.10 74.2
14/08/2022 15:44:21 Mwp 6.6 New Zealand (Sea) Mondo -32.81 -179.01 19.5
14/08/2022 10:20:03 Mwp 5.6 Qinghai, China (Land: China) Mondo 33.21 92.86 0.8
14/08/2022 09:25:48 ML 2.7 Canale di Sicilia meridionale (MARE) Mare 36.34 13.01 13.0
14/08/2022 08:48:42 ML 2.7 Canale di Sicilia meridionale (MARE) Mare 36.44 12.61 10.0
14/08/2022 05:11:54 Mwp 6.1 Vanuatu Islands (Sea: Vanuatu) Mondo -15.60 167.13 18.0
14/08/2022 04:47:48 Mwp 5.7 Indonesia (Sea) Mondo 1.82 126.43 34.8
13/08/2022 20:57:19 Mwp 5.9 Papua New Guinea (Land) Mondo -5.98 147.38 68.0
13/08/2022 20:24:28 ML 2.3 6 km a est di Accumoli (RI) Lazio 42.71 13.32 13.3
13/08/2022 20:15:58 ML 2.4 5 km a est di Accumoli (RI) Lazio 42.70 13.31 10.8
13/08/2022 15:02:38 Mwp 5.9 Vanuatu Islands (Sea: Vanuatu) Mondo -15.60 167.09 19.5
13/08/2022 08:25:32 Mwp 6.0 Philippines (Sea) Mondo 6.93 123.95 19.5
13/08/2022 05:44:51 ML 2.8 Canale di Sicilia meridionale (MARE) Mare 36.27 13.25 10.0
13/08/2022 05:19:33 Mw 3.4 Canale di Sicilia meridionale (MARE) Mare 36.50 12.99 9.4
13/08/2022 04:42:31 ML 3.4 Canale di Sicilia meridionale (MARE) Mare 36.45 12.92 15.0
12/08/2022 23:31:49 Mwp 5.2 Libya (Sea) Mondo 33.60 19.17 10.0
12/08/2022 22:55:16 ML 2.1 3 km a nord di Barete (AQ) Abruzzo 42.47 13.29 11.2
12/08/2022 18:39:21 ML 3.0 Tirreno Meridionale (MARE) Mare 38.64 15.42 178.6
12/08/2022 10:27:16 ML 2.1 4 km a ovest di Campobasso (CB) Molise 41.55 14.61 12.8
12/08/2022 06:59:02 ML 2.0 3 km a est di Baranello (CB) Molise 41.54 14.60 12.8
12/08/2022 05:44:31 ML 2.3 1 km a sud-est di Cannara (PG) Umbria 42.99 12.60 9.5
12/08/2022 04:28:45 ML 2.2 8 km nord-est Claut (PN) Friuli Venezia Giulia 46.31 12.60 10.0
12/08/2022 02:45:20 ML 2.2 Tirreno Settentrionale (MARE) Mare 42.40 9.74 29.1
12/08/2022 02:17:11 ML 2.0 Costa Calabra sud-orientale (Reggio di Calabria) Mare 37.63 16.09 28.9
Locations of visitors to this page (counting)
- subnet mask - partners - ipcheck - favicon - speedtest - canale youtube - programmone